Terminal Aerodrome Forecast
Issued by NWS Houston/Galveston, TX

Home | Current Version | Previous Version | Text Only | Print | Product List | Glossary On
Versions: 1 2 3 4 5 6 7 8 9 10 11 12 13 14 15 16 17 18 19 20 21 22 23 24 25
000
FTUS44 KHGX 302334
TAFGLS
TAF
KGLS 302334Z 3100/3124 12007KT P6SM BKN250
     FM310500 03005KT P6SM BKN150
     FM311400 04008KT P6SM VCSH FEW035 SCT250
     FM311900 04009KT P6SM FEW250=

USA.gov is the U.S. government's official web portal to all federal, state and local government web resources and services.